sensor_id;sensor_type;location;lat;lon;timestamp;P1;durP1;ratioP1;P2;durP2;ratioP2
1977;SDS011;989;53.016;8.346;2023-03-19T00:00:05;5.53;;;4.30;;
1977;SDS011;989;53.016;8.346;2023-03-19T00:02:32;7.57;;;4.30;;
1977;SDS011;989;53.016;8.346;2023-03-19T00:04:58;6.67;;;5.00;;
1977;SDS011;989;53.016;8.346;2023-03-19T00:07:24;7.22;;;5.15;;
1977;SDS011;989;53.016;8.346;2023-03-19T00:09:50;7.83;;;6.03;;
1977;SDS011;989;53.016;8.346;2023-03-19T00:12:16;7.30;;;5.23;;
1977;SDS011;989;53.016;8.346;2023-03-19T00:14:42;9.20;;;6.28;;
1977;SDS011;989;53.016;8.346;2023-03-19T00:17:09;10.07;;;6.63;;
1977;SDS011;989;53.016;8.346;2023-03-19T00:19:35;8.82;;;5.65;;
1977;SDS011;989;53.016;8.346;2023-03-19T00:22:01;8.27;;;6.13;;
1977;SDS011;989;53.016;8.346;2023-03-19T00:24:27;17.30;;;6.18;;
1977;SDS011;989;53.016;8.346;2023-03-19T00:26:54;9.82;;;7.05;;
1977;SDS011;989;53.016;8.346;2023-03-19T00:29:20;7.67;;;6.53;;
1977;SDS011;989;53.016;8.346;2023-03-19T00:31:47;13.05;;;8.07;;
1977;SDS011;989;53.016;8.346;2023-03-19T00:34:13;12.50;;;7.55;;
1977;SDS011;989;53.016;8.346;2023-03-19T00:36:43;9.43;;;6.95;;
1977;SDS011;989;53.016;8.346;2023-03-19T00:39:09;10.27;;;7.20;;
1977;SDS011;989;53.016;8.346;2023-03-19T00:41:35;9.35;;;7.38;;
1977;SDS011;989;53.016;8.346;2023-03-19T00:44:02;9.02;;;7.05;;
1977;SDS011;989;53.016;8.346;2023-03-19T00:46:28;10.20;;;7.50;;
1977;SDS011;989;53.016;8.346;2023-03-19T00:48:55;10.20;;;7.93;;
1977;SDS011;989;53.016;8.346;2023-03-19T00:51:22;10.85;;;7.70;;
1977;SDS011;989;53.016;8.346;2023-03-19T00:53:49;11.77;;;7.35;;
1977;SDS011;989;53.016;8.346;2023-03-19T00:56:15;9.30;;;6.60;;
1977;SDS011;989;53.016;8.346;2023-03-19T00:58:42;11.67;;;7.20;;
1977;SDS011;989;53.016;8.346;2023-03-19T01:01:08;12.25;;;7.80;;
1977;SDS011;989;53.016;8.346;2023-03-19T01:03:35;15.30;;;8.27;;
1977;SDS011;989;53.016;8.346;2023-03-19T01:06:01;10.95;;;7.60;;
1977;SDS011;989;53.016;8.346;2023-03-19T01:08:27;12.93;;;8.70;;
1977;SDS011;989;53.016;8.346;2023-03-19T01:10:53;12.40;;;7.90;;
1977;SDS011;989;53.016;8.346;2023-03-19T01:13:19;12.00;;;8.67;;
1977;SDS011;989;53.016;8.346;2023-03-19T01:15:45;13.40;;;8.00;;
1977;SDS011;989;53.016;8.346;2023-03-19T01:18:11;12.93;;;8.17;;
1977;SDS011;989;53.016;8.346;2023-03-19T01:20:38;17.00;;;8.57;;
1977;SDS011;989;53.016;8.346;2023-03-19T01:23:04;11.33;;;8.17;;
1977;SDS011;989;53.016;8.346;2023-03-19T01:25:31;16.50;;;9.30;;
1977;SDS011;989;53.016;8.346;2023-03-19T01:27:57;12.00;;;7.70;;
1977;SDS011;989;53.016;8.346;2023-03-19T01:30:23;13.83;;;8.40;;
1977;SDS011;989;53.016;8.346;2023-03-19T01:32:49;11.97;;;7.87;;
1977;SDS011;989;53.016;8.346;2023-03-19T01:35:15;14.73;;;9.40;;
1977;SDS011;989;53.016;8.346;2023-03-19T01:37:41;13.97;;;8.40;;
1977;SDS011;989;53.016;8.346;2023-03-19T01:40:09;12.23;;;8.43;;
1977;SDS011;989;53.016;8.346;2023-03-19T01:42:49;14.70;;;9.30;;
1977;SDS011;989;53.016;8.346;2023-03-19T01:45:35;14.33;;;8.20;;
1977;SDS011;989;53.016;8.346;2023-03-19T01:48:02;10.63;;;8.23;;
1977;SDS011;989;53.016;8.346;2023-03-19T01:50:32;13.13;;;8.40;;
1977;SDS011;989;53.016;8.346;2023-03-19T01:53:00;14.50;;;9.27;;
1977;SDS011;989;53.016;8.346;2023-03-19T01:55:26;12.87;;;8.73;;
1977;SDS011;989;53.016;8.346;2023-03-19T01:57:52;16.80;;;10.20;;
1977;SDS011;989;53.016;8.346;2023-03-19T02:00:18;11.40;;;8.70;;
1977;SDS011;989;53.016;8.346;2023-03-19T02:02:46;14.43;;;9.20;;
1977;SDS011;989;53.016;8.346;2023-03-19T02:05:13;10.67;;;8.30;;
1977;SDS011;989;53.016;8.346;2023-03-19T02:07:40;15.63;;;9.03;;
1977;SDS011;989;53.016;8.346;2023-03-19T02:10:08;14.30;;;9.10;;
1977;SDS011;989;53.016;8.346;2023-03-19T02:12:35;14.17;;;8.70;;
1977;SDS011;989;53.016;8.346;2023-03-19T02:15:01;13.40;;;8.85;;
1977;SDS011;989;53.016;8.346;2023-03-19T02:17:27;14.10;;;8.60;;
1977;SDS011;989;53.016;8.346;2023-03-19T02:22:26;17.87;;;9.10;;
1977;SDS011;989;53.016;8.346;2023-03-19T02:25:09;17.23;;;10.40;;
1977;SDS011;989;53.016;8.346;2023-03-19T02:27:35;13.50;;;9.07;;
1977;SDS011;989;53.016;8.346;2023-03-19T02:30:18;13.30;;;9.63;;
1977;SDS011;989;53.016;8.346;2023-03-19T02:32:44;15.53;;;9.80;;
1977;SDS011;989;53.016;8.346;2023-03-19T02:35:10;13.90;;;9.33;;
1977;SDS011;989;53.016;8.346;2023-03-19T02:37:36;15.30;;;9.80;;
1977;SDS011;989;53.016;8.346;2023-03-19T02:40:03;13.80;;;10.30;;
1977;SDS011;989;53.016;8.346;2023-03-19T02:42:32;19.93;;;10.70;;
1977;SDS011;989;53.016;8.346;2023-03-19T02:44:58;17.27;;;10.20;;
1977;SDS011;989;53.016;8.346;2023-03-19T02:47:24;21.63;;;9.83;;
1977;SDS011;989;53.016;8.346;2023-03-19T02:49:51;17.77;;;9.80;;
1977;SDS011;989;53.016;8.346;2023-03-19T02:52:17;16.93;;;9.90;;
1977;SDS011;989;53.016;8.346;2023-03-19T02:54:43;18.00;;;11.30;;
1977;SDS011;989;53.016;8.346;2023-03-19T02:57:09;21.47;;;10.40;;
1977;SDS011;989;53.016;8.346;2023-03-19T02:59:35;20.77;;;11.30;;
1977;SDS011;989;53.016;8.346;2023-03-19T03:02:02;17.10;;;11.83;;
1977;SDS011;989;53.016;8.346;2023-03-19T03:04:29;16.23;;;10.47;;
1977;SDS011;989;53.016;8.346;2023-03-19T03:06:55;18.33;;;11.93;;
1977;SDS011;989;53.016;8.346;2023-03-19T03:09:21;13.20;;;9.47;;
1977;SDS011;989;53.016;8.346;2023-03-19T03:11:47;18.20;;;10.15;;
1977;SDS011;989;53.016;8.346;2023-03-19T03:14:13;20.77;;;12.23;;
1977;SDS011;989;53.016;8.346;2023-03-19T03:16:39;17.30;;;11.90;;
1977;SDS011;989;53.016;8.346;2023-03-19T03:19:05;16.60;;;11.80;;
1977;SDS011;989;53.016;8.346;2023-03-19T03:21:31;16.20;;;11.27;;
1977;SDS011;989;53.016;8.346;2023-03-19T03:23:58;20.70;;;11.80;;
1977;SDS011;989;53.016;8.346;2023-03-19T03:26:25;19.90;;;12.20;;
1977;SDS011;989;53.016;8.346;2023-03-19T03:28:51;18.77;;;12.50;;
1977;SDS011;989;53.016;8.346;2023-03-19T03:31:17;17.55;;;12.77;;
1977;SDS011;989;53.016;8.346;2023-03-19T03:33:43;19.20;;;12.80;;
1977;SDS011;989;53.016;8.346;2023-03-19T03:36:10;21.53;;;13.17;;
1977;SDS011;989;53.016;8.346;2023-03-19T03:38:36;27.70;;;12.77;;
1977;SDS011;989;53.016;8.346;2023-03-19T03:41:02;20.30;;;14.67;;
1977;SDS011;989;53.016;8.346;2023-03-19T03:43:29;20.77;;;13.30;;
1977;SDS011;989;53.016;8.346;2023-03-19T03:45:54;22.90;;;13.90;;
1977;SDS011;989;53.016;8.346;2023-03-19T03:48:20;20.47;;;14.23;;
1977;SDS011;989;53.016;8.346;2023-03-19T03:50:46;18.27;;;13.10;;
1977;SDS011;989;53.016;8.346;2023-03-19T03:53:12;20.80;;;13.13;;
1977;SDS011;989;53.016;8.346;2023-03-19T03:55:39;24.57;;;14.40;;
1977;SDS011;989;53.016;8.346;2023-03-19T03:58:05;25.73;;;14.77;;
1977;SDS011;989;53.016;8.346;2023-03-19T04:00:31;25.03;;;14.70;;
1977;SDS011;989;53.016;8.346;2023-03-19T04:02:57;24.40;;;13.43;;
1977;SDS011;989;53.016;8.346;2023-03-19T04:05:24;25.40;;;14.40;;
1977;SDS011;989;53.016;8.346;2023-03-19T04:07:50;23.73;;;15.60;;
1977;SDS011;989;53.016;8.346;2023-03-19T04:10:16;23.43;;;15.50;;
1977;SDS011;989;53.016;8.346;2023-03-19T04:12:43;22.97;;;15.07;;
1977;SDS011;989;53.016;8.346;2023-03-19T04:15:10;22.27;;;14.40;;
1977;SDS011;989;53.016;8.346;2023-03-19T04:17:36;30.37;;;15.47;;
1977;SDS011;989;53.016;8.346;2023-03-19T04:20:04;27.80;;;15.67;;
1977;SDS011;989;53.016;8.346;2023-03-19T04:22:31;26.00;;;16.60;;
1977;SDS011;989;53.016;8.346;2023-03-19T04:24:58;26.93;;;15.83;;
1977;SDS011;989;53.016;8.346;2023-03-19T04:27:24;26.77;;;17.02;;
1977;SDS011;989;53.016;8.346;2023-03-19T04:29:50;28.00;;;16.13;;
1977;SDS011;989;53.016;8.346;2023-03-19T04:32:16;25.87;;;16.10;;
1977;SDS011;989;53.016;8.346;2023-03-19T04:34:42;25.90;;;17.00;;
1977;SDS011;989;53.016;8.346;2023-03-19T04:37:08;23.07;;;15.13;;
1977;SDS011;989;53.016;8.346;2023-03-19T04:39:34;31.40;;;15.70;;
1977;SDS011;989;53.016;8.346;2023-03-19T04:42:01;29.33;;;16.80;;
1977;SDS011;989;53.016;8.346;2023-03-19T04:44:28;26.47;;;17.87;;
1977;SDS011;989;53.016;8.346;2023-03-19T04:46:55;29.40;;;16.53;;
1977;SDS011;989;53.016;8.346;2023-03-19T04:49:21;25.50;;;14.43;;
1977;SDS011;989;53.016;8.346;2023-03-19T04:51:48;31.27;;;16.47;;
1977;SDS011;989;53.016;8.346;2023-03-19T04:54:14;28.60;;;15.77;;
1977;SDS011;989;53.016;8.346;2023-03-19T04:56:40;25.33;;;15.70;;
1977;SDS011;989;53.016;8.346;2023-03-19T04:59:06;23.87;;;15.90;;
1977;SDS011;989;53.016;8.346;2023-03-19T05:01:32;27.60;;;17.33;;
1977;SDS011;989;53.016;8.346;2023-03-19T05:03:58;27.43;;;15.80;;
1977;SDS011;989;53.016;8.346;2023-03-19T05:06:25;25.60;;;16.77;;
1977;SDS011;989;53.016;8.346;2023-03-19T05:08:51;26.20;;;16.27;;
1977;SDS011;989;53.016;8.346;2023-03-19T05:11:17;25.07;;;15.90;;
1977;SDS011;989;53.016;8.346;2023-03-19T05:13:43;29.30;;;17.60;;
1977;SDS011;989;53.016;8.346;2023-03-19T05:16:10;23.47;;;15.40;;
1977;SDS011;989;53.016;8.346;2023-03-19T05:18:37;28.27;;;18.00;;
1977;SDS011;989;53.016;8.346;2023-03-19T05:21:03;36.90;;;17.40;;
1977;SDS011;989;53.016;8.346;2023-03-19T05:23:29;27.10;;;18.00;;
1977;SDS011;989;53.016;8.346;2023-03-19T05:25:58;33.33;;;17.80;;
1977;SDS011;989;53.016;8.346;2023-03-19T05:28:25;30.57;;;19.10;;
1977;SDS011;989;53.016;8.346;2023-03-19T05:30:51;30.73;;;16.90;;
1977;SDS011;989;53.016;8.346;2023-03-19T05:33:17;27.00;;;18.23;;
1977;SDS011;989;53.016;8.346;2023-03-19T05:35:43;28.13;;;17.80;;
1977;SDS011;989;53.016;8.346;2023-03-19T05:38:09;38.27;;;20.00;;
1977;SDS011;989;53.016;8.346;2023-03-19T05:40:35;32.00;;;21.10;;
1977;SDS011;989;53.016;8.346;2023-03-19T05:43:01;30.53;;;18.93;;
1977;SDS011;989;53.016;8.346;2023-03-19T05:45:27;36.27;;;21.47;;
1977;SDS011;989;53.016;8.346;2023-03-19T05:47:54;37.37;;;20.50;;
1977;SDS011;989;53.016;8.346;2023-03-19T05:50:21;28.90;;;17.73;;
1977;SDS011;989;53.016;8.346;2023-03-19T05:52:47;32.47;;;21.60;;
1977;SDS011;989;53.016;8.346;2023-03-19T05:55:13;36.30;;;22.67;;
1977;SDS011;989;53.016;8.346;2023-03-19T05:57:39;37.13;;;20.20;;
1977;SDS011;989;53.016;8.346;2023-03-19T06:00:06;34.13;;;20.97;;
1977;SDS011;989;53.016;8.346;2023-03-19T06:02:36;32.30;;;20.57;;
1977;SDS011;989;53.016;8.346;2023-03-19T06:05:02;43.20;;;20.30;;
1977;SDS011;989;53.016;8.346;2023-03-19T06:07:28;31.33;;;19.57;;
1977;SDS011;989;53.016;8.346;2023-03-19T06:09:54;35.93;;;23.40;;
1977;SDS011;989;53.016;8.346;2023-03-19T06:12:20;26.40;;;18.80;;
1977;SDS011;989;53.016;8.346;2023-03-19T06:14:46;31.07;;;20.60;;
1977;SDS011;989;53.016;8.346;2023-03-19T06:17:12;36.20;;;21.00;;
1977;SDS011;989;53.016;8.346;2023-03-19T06:19:38;32.63;;;20.23;;
1977;SDS011;989;53.016;8.346;2023-03-19T06:22:04;32.93;;;19.50;;
1977;SDS011;989;53.016;8.346;2023-03-19T06:24:30;31.23;;;19.97;;
1977;SDS011;989;53.016;8.346;2023-03-19T06:26:56;28.13;;;19.30;;
1977;SDS011;989;53.016;8.346;2023-03-19T06:29:22;26.87;;;18.33;;
1977;SDS011;989;53.016;8.346;2023-03-19T06:31:48;28.40;;;17.43;;
1977;SDS011;989;53.016;8.346;2023-03-19T06:34:14;25.23;;;18.67;;
1977;SDS011;989;53.016;8.346;2023-03-19T06:36:40;31.30;;;19.13;;
1977;SDS011;989;53.016;8.346;2023-03-19T06:39:06;27.30;;;17.70;;
1977;SDS011;989;53.016;8.346;2023-03-19T06:41:33;31.50;;;19.70;;
1977;SDS011;989;53.016;8.346;2023-03-19T06:43:59;40.60;;;20.63;;
1977;SDS011;989;53.016;8.346;2023-03-19T06:46:25;28.40;;;19.33;;
1977;SDS011;989;53.016;8.346;2023-03-19T06:48:51;25.37;;;17.77;;
1977;SDS011;989;53.016;8.346;2023-03-19T06:51:17;29.47;;;17.97;;
1977;SDS011;989;53.016;8.346;2023-03-19T06:53:43;23.70;;;16.53;;
1977;SDS011;989;53.016;8.346;2023-03-19T06:56:09;26.80;;;18.00;;
1977;SDS011;989;53.016;8.346;2023-03-19T06:58:35;28.63;;;19.67;;
1977;SDS011;989;53.016;8.346;2023-03-19T07:01:01;29.23;;;17.30;;
1977;SDS011;989;53.016;8.346;2023-03-19T07:03:27;35.90;;;17.00;;
1977;SDS011;989;53.016;8.346;2023-03-19T07:05:53;34.47;;;17.80;;
1977;SDS011;989;53.016;8.346;2023-03-19T07:08:19;33.50;;;17.10;;
1977;SDS011;989;53.016;8.346;2023-03-19T07:10:45;27.87;;;17.57;;
1977;SDS011;989;53.016;8.346;2023-03-19T07:13:11;21.33;;;14.23;;
1977;SDS011;989;53.016;8.346;2023-03-19T07:15:37;25.83;;;16.00;;
1977;SDS011;989;53.016;8.346;2023-03-19T07:18:04;25.23;;;14.70;;
1977;SDS011;989;53.016;8.346;2023-03-19T07:20:30;21.73;;;14.80;;
1977;SDS011;989;53.016;8.346;2023-03-19T07:22:56;23.30;;;17.10;;
1977;SDS011;989;53.016;8.346;2023-03-19T07:25:22;21.20;;;15.13;;
1977;SDS011;989;53.016;8.346;2023-03-19T07:27:48;21.23;;;14.47;;
1977;SDS011;989;53.016;8.346;2023-03-19T07:30:14;23.50;;;15.70;;
1977;SDS011;989;53.016;8.346;2023-03-19T07:32:40;21.50;;;13.20;;
1977;SDS011;989;53.016;8.346;2023-03-19T07:35:07;22.93;;;14.83;;
1977;SDS011;989;53.016;8.346;2023-03-19T07:37:34;27.57;;;14.50;;
1977;SDS011;989;53.016;8.346;2023-03-19T07:40:00;25.93;;;14.13;;
1977;SDS011;989;53.016;8.346;2023-03-19T07:42:26;23.33;;;14.73;;
1977;SDS011;989;53.016;8.346;2023-03-19T07:44:52;20.97;;;13.80;;
1977;SDS011;989;53.016;8.346;2023-03-19T07:47:18;30.20;;;14.37;;
1977;SDS011;989;53.016;8.346;2023-03-19T07:49:44;21.53;;;14.60;;
1977;SDS011;989;53.016;8.346;2023-03-19T07:52:10;18.30;;;11.80;;
1977;SDS011;989;53.016;8.346;2023-03-19T07:54:37;17.90;;;11.67;;
1977;SDS011;989;53.016;8.346;2023-03-19T07:57:03;19.57;;;12.40;;
1977;SDS011;989;53.016;8.346;2023-03-19T07:59:29;20.77;;;13.47;;
1977;SDS011;989;53.016;8.346;2023-03-19T08:01:55;16.03;;;11.03;;
1977;SDS011;989;53.016;8.346;2023-03-19T08:04:21;18.40;;;11.97;;
1977;SDS011;989;53.016;8.346;2023-03-19T08:06:48;17.77;;;10.40;;
1977;SDS011;989;53.016;8.346;2023-03-19T08:09:14;17.40;;;11.10;;
1977;SDS011;989;53.016;8.346;2023-03-19T08:11:40;20.77;;;11.60;;
1977;SDS011;989;53.016;8.346;2023-03-19T08:14:06;16.77;;;11.07;;
1977;SDS011;989;53.016;8.346;2023-03-19T08:16:32;13.77;;;10.23;;
1977;SDS011;989;53.016;8.346;2023-03-19T08:18:58;15.73;;;10.87;;
1977;SDS011;989;53.016;8.346;2023-03-19T08:21:24;12.30;;;9.60;;
1977;SDS011;989;53.016;8.346;2023-03-19T08:23:51;17.63;;;10.50;;
1977;SDS011;989;53.016;8.346;2023-03-19T08:26:17;18.90;;;11.20;;
1977;SDS011;989;53.016;8.346;2023-03-19T08:28:43;16.53;;;9.33;;
1977;SDS011;989;53.016;8.346;2023-03-19T08:31:10;16.13;;;10.57;;
1977;SDS011;989;53.016;8.346;2023-03-19T08:33:36;19.70;;;9.27;;
1977;SDS011;989;53.016;8.346;2023-03-19T08:36:06;14.53;;;10.30;;
1977;SDS011;989;53.016;8.346;2023-03-19T08:38:32;14.93;;;10.30;;
1977;SDS011;989;53.016;8.346;2023-03-19T08:40:58;15.87;;;10.30;;
1977;SDS011;989;53.016;8.346;2023-03-19T08:43:27;16.97;;;9.80;;
1977;SDS011;989;53.016;8.346;2023-03-19T08:45:53;13.80;;;9.80;;
1977;SDS011;989;53.016;8.346;2023-03-19T08:48:19;17.20;;;10.10;;
1977;SDS011;989;53.016;8.346;2023-03-19T08:50:45;18.50;;;11.63;;
1977;SDS011;989;53.016;8.346;2023-03-19T08:53:11;16.03;;;10.60;;
1977;SDS011;989;53.016;8.346;2023-03-19T08:55:37;14.37;;;8.50;;
1977;SDS011;989;53.016;8.346;2023-03-19T08:58:03;33.00;;;9.83;;
1977;SDS011;989;53.016;8.346;2023-03-19T09:00:29;21.33;;;9.50;;
1977;SDS011;989;53.016;8.346;2023-03-19T09:02:55;20.23;;;9.53;;
1977;SDS011;989;53.016;8.346;2023-03-19T09:05:21;16.30;;;11.33;;
1977;SDS011;989;53.016;8.346;2023-03-19T09:07:49;21.23;;;10.97;;
1977;SDS011;989;53.016;8.346;2023-03-19T09:10:16;14.97;;;11.30;;
1977;SDS011;989;53.016;8.346;2023-03-19T09:12:42;16.07;;;10.17;;
1977;SDS011;989;53.016;8.346;2023-03-19T09:15:08;22.80;;;9.20;;
1977;SDS011;989;53.016;8.346;2023-03-19T09:17:34;13.93;;;8.77;;
1977;SDS011;989;53.016;8.346;2023-03-19T09:20:00;14.97;;;9.40;;
1977;SDS011;989;53.016;8.346;2023-03-19T09:22:26;16.33;;;9.90;;
1977;SDS011;989;53.016;8.346;2023-03-19T09:24:52;12.60;;;9.07;;
1977;SDS011;989;53.016;8.346;2023-03-19T09:27:18;17.53;;;9.17;;
1977;SDS011;989;53.016;8.346;2023-03-19T09:29:45;22.20;;;10.63;;
1977;SDS011;989;53.016;8.346;2023-03-19T09:32:11;20.80;;;10.93;;
1977;SDS011;989;53.016;8.346;2023-03-19T09:34:37;17.13;;;10.30;;
1977;SDS011;989;53.016;8.346;2023-03-19T09:37:03;18.37;;;10.40;;
1977;SDS011;989;53.016;8.346;2023-03-19T09:39:29;14.77;;;9.70;;
1977;SDS011;989;53.016;8.346;2023-03-19T09:44:28;14.83;;;9.80;;
1977;SDS011;989;53.016;8.346;2023-03-19T09:47:11;22.27;;;11.13;;
1977;SDS011;989;53.016;8.346;2023-03-19T09:49:45;18.17;;;10.47;;
1977;SDS011;989;53.016;8.346;2023-03-19T09:52:29;15.27;;;9.53;;
1977;SDS011;989;53.016;8.346;2023-03-19T09:54:57;15.80;;;9.13;;
1977;SDS011;989;53.016;8.346;2023-03-19T09:57:26;13.73;;;9.53;;
1977;SDS011;989;53.016;8.346;2023-03-19T09:59:54;14.90;;;8.73;;
1977;SDS011;989;53.016;8.346;2023-03-19T10:10:15;16.40;;;8.20;;
1977;SDS011;989;53.016;8.346;2023-03-19T10:15:30;12.47;;;8.60;;
1977;SDS011;989;53.016;8.346;2023-03-19T10:20:35;22.33;;;10.37;;
1977;SDS011;989;53.016;8.346;2023-03-19T10:23:22;16.23;;;10.90;;
1977;SDS011;989;53.016;8.346;2023-03-19T10:25:50;14.07;;;10.50;;
1977;SDS011;989;53.016;8.346;2023-03-19T10:28:17;14.40;;;10.00;;
1977;SDS011;989;53.016;8.346;2023-03-19T10:30:44;23.13;;;9.90;;
1977;SDS011;989;53.016;8.346;2023-03-19T10:33:24;19.40;;;11.53;;
1977;SDS011;989;53.016;8.346;2023-03-19T10:35:59;25.97;;;14.33;;
1977;SDS011;989;53.016;8.346;2023-03-19T10:38:26;52.87;;;45.53;;
1977;SDS011;989;53.016;8.346;2023-03-19T10:41:02;19.90;;;10.57;;
1977;SDS011;989;53.016;8.346;2023-03-19T10:43:29;18.03;;;10.27;;
1977;SDS011;989;53.016;8.346;2023-03-19T10:45:56;25.47;;;11.20;;
1977;SDS011;989;53.016;8.346;2023-03-19T10:48:24;17.17;;;10.73;;
1977;SDS011;989;53.016;8.346;2023-03-19T10:50:59;14.30;;;8.60;;
1977;SDS011;989;53.016;8.346;2023-03-19T10:53:31;18.80;;;11.80;;
1977;SDS011;989;53.016;8.346;2023-03-19T10:56:00;20.10;;;12.23;;
1977;SDS011;989;53.016;8.346;2023-03-19T10:58:27;19.17;;;10.90;;
1977;SDS011;989;53.016;8.346;2023-03-19T11:00:57;25.37;;;12.73;;
1977;SDS011;989;53.016;8.346;2023-03-19T11:03:37;26.20;;;16.03;;
1977;SDS011;989;53.016;8.346;2023-03-19T11:06:04;23.20;;;15.90;;
1977;SDS011;989;53.016;8.346;2023-03-19T11:08:33;22.43;;;14.23;;
1977;SDS011;989;53.016;8.346;2023-03-19T11:10:59;21.87;;;13.27;;
1977;SDS011;989;53.016;8.346;2023-03-19T11:13:25;28.33;;;15.37;;
1977;SDS011;989;53.016;8.346;2023-03-19T11:15:52;29.50;;;15.17;;
1977;SDS011;989;53.016;8.346;2023-03-19T11:18:20;28.60;;;18.80;;
1977;SDS011;989;53.016;8.346;2023-03-19T11:20:59;33.23;;;18.37;;
1977;SDS011;989;53.016;8.346;2023-03-19T11:23:29;27.40;;;18.13;;
1977;SDS011;989;53.016;8.346;2023-03-19T11:25:59;30.57;;;19.33;;
1977;SDS011;989;53.016;8.346;2023-03-19T11:28:29;33.97;;;17.70;;
1977;SDS011;989;53.016;8.346;2023-03-19T11:52:03;25.60;;;17.80;;
1977;SDS011;989;53.016;8.346;2023-03-19T11:54:48;23.47;;;16.00;;
1977;SDS011;989;53.016;8.346;2023-03-19T11:57:26;26.50;;;14.13;;
1977;SDS011;989;53.016;8.346;2023-03-19T12:00:02;27.37;;;15.00;;
1977;SDS011;989;53.016;8.346;2023-03-19T12:02:38;19.30;;;14.60;;
1977;SDS011;989;53.016;8.346;2023-03-19T12:05:22;16.40;;;12.10;;
1977;SDS011;989;53.016;8.346;2023-03-19T12:10:25;25.30;;;13.10;;
1977;SDS011;989;53.016;8.346;2023-03-19T12:15:30;23.87;;;14.10;;
1977;SDS011;989;53.016;8.346;2023-03-19T12:18:19;21.03;;;12.87;;
1977;SDS011;989;53.016;8.346;2023-03-19T12:21:09;25.60;;;15.80;;
1977;SDS011;989;53.016;8.346;2023-03-19T12:26:18;25.90;;;17.13;;
1977;SDS011;989;53.016;8.346;2023-03-19T12:28:54;22.57;;;14.67;;
1977;SDS011;989;53.016;8.346;2023-03-19T12:31:26;21.10;;;12.97;;
1977;SDS011;989;53.016;8.346;2023-03-19T12:36:32;18.57;;;13.33;;
1977;SDS011;989;53.016;8.346;2023-03-19T12:39:03;19.37;;;12.30;;
1977;SDS011;989;53.016;8.346;2023-03-19T12:41:31;23.77;;;14.00;;
1977;SDS011;989;53.016;8.346;2023-03-19T12:46:30;24.70;;;13.23;;
1977;SDS011;989;53.016;8.346;2023-03-19T12:49:20;28.27;;;14.53;;
1977;SDS011;989;53.016;8.346;2023-03-19T12:51:53;25.77;;;14.20;;
1977;SDS011;989;53.016;8.346;2023-03-19T12:54:29;20.90;;;12.10;;
1977;SDS011;989;53.016;8.346;2023-03-19T12:59:38;12.60;;;9.60;;
1977;SDS011;989;53.016;8.346;2023-03-19T13:02:11;12.07;;;8.30;;
1977;SDS011;989;53.016;8.346;2023-03-19T13:04:52;16.10;;;9.43;;
1977;SDS011;989;53.016;8.346;2023-03-19T13:07:25;15.60;;;8.50;;
1977;SDS011;989;53.016;8.346;2023-03-19T13:09:57;20.33;;;8.70;;
1977;SDS011;989;53.016;8.346;2023-03-19T13:12:26;9.83;;;7.70;;
1977;SDS011;989;53.016;8.346;2023-03-19T13:17:30;12.50;;;8.40;;
1977;SDS011;989;53.016;8.346;2023-03-19T13:19:58;10.70;;;8.33;;
1977;SDS011;989;53.016;8.346;2023-03-19T13:22:26;11.47;;;7.27;;
1977;SDS011;989;53.016;8.346;2023-03-19T13:24:53;9.83;;;7.27;;
1977;SDS011;989;53.016;8.346;2023-03-19T13:27:21;10.90;;;6.80;;
1977;SDS011;989;53.016;8.346;2023-03-19T13:30:29;10.33;;;7.77;;
1977;SDS011;989;53.016;8.346;2023-03-19T13:32:40;10.93;;;7.50;;
1977;SDS011;989;53.016;8.346;2023-03-19T13:37:59;10.47;;;6.20;;
1977;SDS011;989;53.016;8.346;2023-03-19T13:40:40;6.60;;;4.73;;
1977;SDS011;989;53.016;8.346;2023-03-19T13:45:52;7.93;;;5.50;;
1977;SDS011;989;53.016;8.346;2023-03-19T13:51:04;8.33;;;5.43;;
1977;SDS011;989;53.016;8.346;2023-03-19T13:53:32;9.37;;;5.80;;
1977;SDS011;989;53.016;8.346;2023-03-19T13:56:03;10.77;;;5.27;;
1977;SDS011;989;53.016;8.346;2023-03-19T13:58:29;7.83;;;5.17;;
1977;SDS011;989;53.016;8.346;2023-03-19T14:04:36;10.63;;;6.30;;
1977;SDS011;989;53.016;8.346;2023-03-19T14:06:42;9.63;;;4.70;;
1977;SDS011;989;53.016;8.346;2023-03-19T14:12:39;8.50;;;6.30;;
1977;SDS011;989;53.016;8.346;2023-03-19T14:14:56;8.90;;;6.27;;
1977;SDS011;989;53.016;8.346;2023-03-19T14:17:26;9.00;;;6.10;;
1977;SDS011;989;53.016;8.346;2023-03-19T14:19:53;9.17;;;6.17;;
1977;SDS011;989;53.016;8.346;2023-03-19T14:22:38;12.37;;;6.60;;
1977;SDS011;989;53.016;8.346;2023-03-19T14:27:45;9.23;;;6.50;;
1977;SDS011;989;53.016;8.346;2023-03-19T14:30:16;11.93;;;6.00;;
1977;SDS011;989;53.016;8.346;2023-03-19T14:32:43;20.03;;;10.73;;
1977;SDS011;989;53.016;8.346;2023-03-19T14:35:13;14.37;;;7.60;;
1977;SDS011;989;53.016;8.346;2023-03-19T14:37:59;14.83;;;7.33;;
1977;SDS011;989;53.016;8.346;2023-03-19T14:40:26;8.27;;;5.27;;
1977;SDS011;989;53.016;8.346;2023-03-19T14:53:29;13.17;;;8.13;;
1977;SDS011;989;53.016;8.346;2023-03-19T14:56:00;10.13;;;5.37;;
1977;SDS011;989;53.016;8.346;2023-03-19T14:58:27;8.40;;;5.53;;
1977;SDS011;989;53.016;8.346;2023-03-19T15:00:53;9.93;;;5.63;;
1977;SDS011;989;53.016;8.346;2023-03-19T15:03:29;14.00;;;7.00;;
1977;SDS011;989;53.016;8.346;2023-03-19T15:05:59;12.17;;;6.93;;
1977;SDS011;989;53.016;8.346;2023-03-19T15:08:25;10.33;;;6.20;;
1977;SDS011;989;53.016;8.346;2023-03-19T15:11:00;8.53;;;5.40;;
1977;SDS011;989;53.016;8.346;2023-03-19T15:16:30;10.23;;;5.37;;
1977;SDS011;989;53.016;8.346;2023-03-19T15:18:58;7.90;;;5.43;;
1977;SDS011;989;53.016;8.346;2023-03-19T15:21:24;8.20;;;4.97;;
1977;SDS011;989;53.016;8.346;2023-03-19T15:23:50;8.80;;;5.47;;
1977;SDS011;989;53.016;8.346;2023-03-19T15:26:27;8.20;;;5.27;;
1977;SDS011;989;53.016;8.346;2023-03-19T15:28:53;7.23;;;4.70;;
1977;SDS011;989;53.016;8.346;2023-03-19T15:31:21;7.03;;;4.83;;
1977;SDS011;989;53.016;8.346;2023-03-19T15:33:47;7.73;;;4.93;;
1977;SDS011;989;53.016;8.346;2023-03-19T15:36:18;8.90;;;4.60;;
1977;SDS011;989;53.016;8.346;2023-03-19T15:41:15;6.80;;;5.03;;
1977;SDS011;989;53.016;8.346;2023-03-19T15:43:41;8.03;;;5.20;;
1977;SDS011;989;53.016;8.346;2023-03-19T15:46:12;11.03;;;5.30;;
1977;SDS011;989;53.016;8.346;2023-03-19T15:48:41;9.00;;;5.80;;
1977;SDS011;989;53.016;8.346;2023-03-19T15:51:08;18.63;;;10.20;;
1977;SDS011;989;53.016;8.346;2023-03-19T15:53:35;9.57;;;6.90;;
1977;SDS011;989;53.016;8.346;2023-03-19T15:56:02;14.10;;;7.20;;
1977;SDS011;989;53.016;8.346;2023-03-19T15:58:29;11.23;;;6.53;;
1977;SDS011;989;53.016;8.346;2023-03-19T16:00:56;11.47;;;6.73;;
1977;SDS011;989;53.016;8.346;2023-03-19T16:03:25;9.83;;;5.87;;
1977;SDS011;989;53.016;8.346;2023-03-19T16:05:59;11.60;;;5.57;;
1977;SDS011;989;53.016;8.346;2023-03-19T16:08:26;10.97;;;5.53;;
1977;SDS011;989;53.016;8.346;2023-03-19T16:10:52;7.43;;;5.37;;
1977;SDS011;989;53.016;8.346;2023-03-19T16:15:52;8.43;;;4.60;;
1977;SDS011;989;53.016;8.346;2023-03-19T16:20:47;7.93;;;5.43;;
1977;SDS011;989;53.016;8.346;2023-03-19T16:23:19;9.93;;;6.30;;
1977;SDS011;989;53.016;8.346;2023-03-19T16:25:46;9.30;;;5.30;;
1977;SDS011;989;53.016;8.346;2023-03-19T16:28:16;11.77;;;5.90;;
1977;SDS011;989;53.016;8.346;2023-03-19T16:30:46;8.30;;;4.80;;
1977;SDS011;989;53.016;8.346;2023-03-19T16:33:12;8.97;;;5.20;;
1977;SDS011;989;53.016;8.346;2023-03-19T16:35:38;9.87;;;5.73;;
1977;SDS011;989;53.016;8.346;2023-03-19T16:38:24;8.97;;;5.37;;
1977;SDS011;989;53.016;8.346;2023-03-19T16:43:36;10.93;;;5.87;;
1977;SDS011;989;53.016;8.346;2023-03-19T16:46:09;8.20;;;5.20;;
1977;SDS011;989;53.016;8.346;2023-03-19T16:48:36;15.03;;;5.40;;
1977;SDS011;989;53.016;8.346;2023-03-19T16:51:03;12.97;;;6.50;;
1977;SDS011;989;53.016;8.346;2023-03-19T16:53:29;15.17;;;6.47;;